Terminal Aerodrome Forecast
Issued by NWS Charleston, WV

Current Version | Previous Version | Graphics & Text | Print | Product List | Glossary On
Versions: 1 2 3 4 5 6 7 8 9 10 11 12 13 14 15 16 17 18 19 20 21 22 23 24
000
FTUS41 KRLX 241700
TAFEKN
TAF
KEKN 241720Z 2418/2518 13005KT P6SM SCT035
     FM250100 00000KT P6SM SKC
     FM250400 00000KT 5SM BR SKC
     FM250500 00000KT 2SM BR SCT001
     FM250600 00000KT 1/4SM FG VV001
     FM251300 00000KT 2SM BR BKN002
     FM251400 VRB03KT 5SM BR SCT004
     FM251500 10004KT P6SM SKC
     FM251600 09005KT P6SM SCT035=

USA.gov is the U.S. government's official web portal to all federal, state and local government web resources and services.